sensor_id;sensor_type;location;lat;lon;timestamp;temperature;humidity
48728;DHT22;34527;45.618;5.130;2023-06-10T00:01:08;18.30;99.90
48728;DHT22;34527;45.618;5.130;2023-06-10T00:03:33;18.30;99.90
48728;DHT22;34527;45.618;5.130;2023-06-10T00:05:59;18.20;99.90
48728;DHT22;34527;45.618;5.130;2023-06-10T00:08:24;18.20;99.90
48728;DHT22;34527;45.618;5.130;2023-06-10T00:10:50;18.20;99.90
48728;DHT22;34527;45.618;5.130;2023-06-10T00:13:16;18.20;99.90
48728;DHT22;34527;45.618;5.130;2023-06-10T00:15:42;18.30;99.90
48728;DHT22;34527;45.618;5.130;2023-06-10T00:18:07;18.30;99.90
48728;DHT22;34527;45.618;5.130;2023-06-10T00:20:35;18.30;99.90
48728;DHT22;34527;45.618;5.130;2023-06-10T00:23:03;18.30;99.90
48728;DHT22;34527;45.618;5.130;2023-06-10T00:25:28;18.30;99.90
48728;DHT22;34527;45.618;5.130;2023-06-10T00:27:55;18.30;99.90
48728;DHT22;34527;45.618;5.130;2023-06-10T00:30:20;18.30;99.90
48728;DHT22;34527;45.618;5.130;2023-06-10T00:32:46;18.30;99.90
48728;DHT22;34527;45.618;5.130;2023-06-10T00:35:12;18.30;99.90
48728;DHT22;34527;45.618;5.130;2023-06-10T00:37:38;18.40;99.90
48728;DHT22;34527;45.618;5.130;2023-06-10T00:40:04;18.30;99.90
48728;DHT22;34527;45.618;5.130;2023-06-10T00:42:31;18.30;99.90
48728;DHT22;34527;45.618;5.130;2023-06-10T00:44:57;18.40;99.90
48728;DHT22;34527;45.618;5.130;2023-06-10T00:47:22;18.40;99.90
48728;DHT22;34527;45.618;5.130;2023-06-10T00:49:49;18.40;99.90
48728;DHT22;34527;45.618;5.130;2023-06-10T00:52:16;18.50;99.90
48728;DHT22;34527;45.618;5.130;2023-06-10T00:54:44;18.50;99.90
48728;DHT22;34527;45.618;5.130;2023-06-10T00:57:10;18.50;99.90
48728;DHT22;34527;45.618;5.130;2023-06-10T00:59:36;18.40;99.90
48728;DHT22;34527;45.618;5.130;2023-06-10T01:02:01;18.50;99.90
48728;DHT22;34527;45.618;5.130;2023-06-10T01:04:27;18.40;99.90
48728;DHT22;34527;45.618;5.130;2023-06-10T01:09:29;18.40;99.90
48728;DHT22;34527;45.618;5.130;2023-06-10T01:12:33;18.50;99.90
48728;DHT22;34527;45.618;5.130;2023-06-10T01:15:00;18.50;99.90
48728;DHT22;34527;45.618;5.130;2023-06-10T01:17:26;18.50;99.90
48728;DHT22;34527;45.618;5.130;2023-06-10T01:19:56;18.50;99.90
48728;DHT22;34527;45.618;5.130;2023-06-10T01:22:26;18.50;99.90
48728;DHT22;34527;45.618;5.130;2023-06-10T01:24:58;18.40;99.90
48728;DHT22;34527;45.618;5.130;2023-06-10T01:27:28;18.40;99.90
48728;DHT22;34527;45.618;5.130;2023-06-10T01:30:11;18.40;99.90
48728;DHT22;34527;45.618;5.130;2023-06-10T01:32:48;18.50;99.90
48728;DHT22;34527;45.618;5.130;2023-06-10T01:35:15;18.50;99.90
48728;DHT22;34527;45.618;5.130;2023-06-10T01:37:46;18.40;99.90
48728;DHT22;34527;45.618;5.130;2023-06-10T01:40:12;18.40;99.90
48728;DHT22;34527;45.618;5.130;2023-06-10T01:42:38;18.40;99.90
48728;DHT22;34527;45.618;5.130;2023-06-10T01:45:05;18.40;99.90
48728;DHT22;34527;45.618;5.130;2023-06-10T01:47:31;18.40;99.90
48728;DHT22;34527;45.618;5.130;2023-06-10T01:49:56;18.40;99.90
48728;DHT22;34527;45.618;5.130;2023-06-10T01:52:22;18.50;99.90
48728;DHT22;34527;45.618;5.130;2023-06-10T01:54:47;18.50;99.90
48728;DHT22;34527;45.618;5.130;2023-06-10T01:57:13;18.50;99.90
48728;DHT22;34527;45.618;5.130;2023-06-10T01:59:39;18.50;99.90
48728;DHT22;34527;45.618;5.130;2023-06-10T02:02:05;18.50;99.90
48728;DHT22;34527;45.618;5.130;2023-06-10T02:04:31;18.50;99.90
48728;DHT22;34527;45.618;5.130;2023-06-10T02:06:56;18.50;99.90
48728;DHT22;34527;45.618;5.130;2023-06-10T02:09:22;18.50;99.90
48728;DHT22;34527;45.618;5.130;2023-06-10T02:11:48;18.50;99.90
48728;DHT22;34527;45.618;5.130;2023-06-10T02:14:14;18.40;99.90
48728;DHT22;34527;45.618;5.130;2023-06-10T02:16:40;18.50;99.90
48728;DHT22;34527;45.618;5.130;2023-06-10T02:19:06;18.50;99.90
48728;DHT22;34527;45.618;5.130;2023-06-10T02:21:32;18.50;99.90
48728;DHT22;34527;45.618;5.130;2023-06-10T02:24:00;18.50;99.90
48728;DHT22;34527;45.618;5.130;2023-06-10T02:26:25;18.50;99.90
48728;DHT22;34527;45.618;5.130;2023-06-10T02:28:51;18.50;99.90
48728;DHT22;34527;45.618;5.130;2023-06-10T02:31:17;18.50;99.90
48728;DHT22;34527;45.618;5.130;2023-06-10T02:33:44;18.50;99.90
48728;DHT22;34527;45.618;5.130;2023-06-10T02:36:10;18.50;99.90
48728;DHT22;34527;45.618;5.130;2023-06-10T02:38:41;18.50;99.90
48728;DHT22;34527;45.618;5.130;2023-06-10T02:41:07;18.40;99.90
48728;DHT22;34527;45.618;5.130;2023-06-10T02:43:33;18.50;99.90
48728;DHT22;34527;45.618;5.130;2023-06-10T02:45:59;18.40;99.90
48728;DHT22;34527;45.618;5.130;2023-06-10T02:48:24;18.40;99.90
48728;DHT22;34527;45.618;5.130;2023-06-10T02:50:50;18.50;99.90
48728;DHT22;34527;45.618;5.130;2023-06-10T02:53:16;18.50;99.90
48728;DHT22;34527;45.618;5.130;2023-06-10T02:55:42;18.50;99.90
48728;DHT22;34527;45.618;5.130;2023-06-10T02:58:08;18.50;99.90
48728;DHT22;34527;45.618;5.130;2023-06-10T03:00:34;18.50;99.90
48728;DHT22;34527;45.618;5.130;2023-06-10T03:02:59;18.50;99.90
48728;DHT22;34527;45.618;5.130;2023-06-10T03:05:28;18.50;99.90
48728;DHT22;34527;45.618;5.130;2023-06-10T03:07:53;18.50;99.90
48728;DHT22;34527;45.618;5.130;2023-06-10T03:10:19;18.50;99.90
48728;DHT22;34527;45.618;5.130;2023-06-10T03:12:45;18.40;99.90
48728;DHT22;34527;45.618;5.130;2023-06-10T03:15:10;18.50;99.90
48728;DHT22;34527;45.618;5.130;2023-06-10T03:17:36;18.40;99.90
48728;DHT22;34527;45.618;5.130;2023-06-10T03:20:02;18.40;99.90
48728;DHT22;34527;45.618;5.130;2023-06-10T03:22:30;18.40;99.90
48728;DHT22;34527;45.618;5.130;2023-06-10T03:24:56;18.40;99.90
48728;DHT22;34527;45.618;5.130;2023-06-10T03:27:23;18.50;99.90
48728;DHT22;34527;45.618;5.130;2023-06-10T03:29:48;18.40;99.90
48728;DHT22;34527;45.618;5.130;2023-06-10T03:32:14;18.40;99.90
48728;DHT22;34527;45.618;5.130;2023-06-10T03:34:40;18.40;99.90
48728;DHT22;34527;45.618;5.130;2023-06-10T03:37:06;18.50;99.90
48728;DHT22;34527;45.618;5.130;2023-06-10T03:39:32;18.50;99.90
48728;DHT22;34527;45.618;5.130;2023-06-10T03:41:58;18.40;99.90
48728;DHT22;34527;45.618;5.130;2023-06-10T03:44:27;18.40;99.90
48728;DHT22;34527;45.618;5.130;2023-06-10T03:46:53;18.30;99.90
48728;DHT22;34527;45.618;5.130;2023-06-10T03:49:19;18.20;99.90
48728;DHT22;34527;45.618;5.130;2023-06-10T03:51:45;18.10;99.90
48728;DHT22;34527;45.618;5.130;2023-06-10T03:54:11;18.10;99.90
48728;DHT22;34527;45.618;5.130;2023-06-10T03:56:36;18.00;99.90
48728;DHT22;34527;45.618;5.130;2023-06-10T03:59:02;18.10;99.90
48728;DHT22;34527;45.618;5.130;2023-06-10T04:01:28;18.00;99.90
48728;DHT22;34527;45.618;5.130;2023-06-10T04:03:53;18.00;99.90
48728;DHT22;34527;45.618;5.130;2023-06-10T04:06:19;18.10;99.90
48728;DHT22;34527;45.618;5.130;2023-06-10T04:08:48;18.10;99.90
48728;DHT22;34527;45.618;5.130;2023-06-10T04:11:13;18.10;99.90
48728;DHT22;34527;45.618;5.130;2023-06-10T04:13:39;18.10;99.90
48728;DHT22;34527;45.618;5.130;2023-06-10T04:16:05;18.00;99.90
48728;DHT22;34527;45.618;5.130;2023-06-10T04:18:30;18.00;99.90
48728;DHT22;34527;45.618;5.130;2023-06-10T04:20:56;18.00;99.90
48728;DHT22;34527;45.618;5.130;2023-06-10T04:23:22;18.00;99.90
48728;DHT22;34527;45.618;5.130;2023-06-10T04:25:47;18.00;99.90
48728;DHT22;34527;45.618;5.130;2023-06-10T04:28:13;18.00;99.90
48728;DHT22;34527;45.618;5.130;2023-06-10T04:30:39;18.00;99.90
48728;DHT22;34527;45.618;5.130;2023-06-10T04:33:05;18.00;99.90
48728;DHT22;34527;45.618;5.130;2023-06-10T04:35:32;18.00;99.90
48728;DHT22;34527;45.618;5.130;2023-06-10T04:37:58;18.00;99.90
48728;DHT22;34527;45.618;5.130;2023-06-10T04:40:23;18.10;99.90
48728;DHT22;34527;45.618;5.130;2023-06-10T04:42:49;18.10;99.90
48728;DHT22;34527;45.618;5.130;2023-06-10T04:45:15;18.10;99.90
48728;DHT22;34527;45.618;5.130;2023-06-10T04:47:40;18.10;99.90
48728;DHT22;34527;45.618;5.130;2023-06-10T04:50:06;18.10;99.90
48728;DHT22;34527;45.618;5.130;2023-06-10T04:52:32;18.20;99.90
48728;DHT22;34527;45.618;5.130;2023-06-10T04:54:59;18.10;99.90
48728;DHT22;34527;45.618;5.130;2023-06-10T04:57:24;18.20;99.90
48728;DHT22;34527;45.618;5.130;2023-06-10T04:59:52;18.20;99.90
48728;DHT22;34527;45.618;5.130;2023-06-10T05:02:17;18.30;99.90
48728;DHT22;34527;45.618;5.130;2023-06-10T05:04:43;18.30;99.90
48728;DHT22;34527;45.618;5.130;2023-06-10T05:07:08;18.30;99.90
48728;DHT22;34527;45.618;5.130;2023-06-10T05:09:34;18.30;99.90
48728;DHT22;34527;45.618;5.130;2023-06-10T05:12:00;18.40;99.90
48728;DHT22;34527;45.618;5.130;2023-06-10T05:14:25;18.40;99.90
48728;DHT22;34527;45.618;5.130;2023-06-10T05:16:51;18.40;99.90
48728;DHT22;34527;45.618;5.130;2023-06-10T05:19:17;18.40;99.90
48728;DHT22;34527;45.618;5.130;2023-06-10T05:21:43;18.40;99.90
48728;DHT22;34527;45.618;5.130;2023-06-10T05:24:09;18.40;99.90
48728;DHT22;34527;45.618;5.130;2023-06-10T05:26:35;18.50;99.90
48728;DHT22;34527;45.618;5.130;2023-06-10T05:29:05;18.60;99.90
48728;DHT22;34527;45.618;5.130;2023-06-10T05:31:31;18.60;99.90
48728;DHT22;34527;45.618;5.130;2023-06-10T05:33:57;18.60;99.90
48728;DHT22;34527;45.618;5.130;2023-06-10T05:36:23;18.60;99.90
48728;DHT22;34527;45.618;5.130;2023-06-10T05:38:50;18.70;99.90
48728;DHT22;34527;45.618;5.130;2023-06-10T05:41:16;18.70;99.90
48728;DHT22;34527;45.618;5.130;2023-06-10T05:43:42;18.70;99.90
48728;DHT22;34527;45.618;5.130;2023-06-10T05:46:07;18.80;99.90
48728;DHT22;34527;45.618;5.130;2023-06-10T05:48:33;18.90;99.90
48728;DHT22;34527;45.618;5.130;2023-06-10T05:50:58;18.90;99.90
48728;DHT22;34527;45.618;5.130;2023-06-10T05:53:24;19.00;99.90
48728;DHT22;34527;45.618;5.130;2023-06-10T05:55:50;19.00;99.90
48728;DHT22;34527;45.618;5.130;2023-06-10T05:58:16;19.10;99.90
48728;DHT22;34527;45.618;5.130;2023-06-10T06:00:42;19.20;99.90
48728;DHT22;34527;45.618;5.130;2023-06-10T06:03:08;19.30;99.90
48728;DHT22;34527;45.618;5.130;2023-06-10T06:05:34;19.40;99.90
48728;DHT22;34527;45.618;5.130;2023-06-10T06:08:04;19.50;99.90
48728;DHT22;34527;45.618;5.130;2023-06-10T06:10:30;19.50;99.90
48728;DHT22;34527;45.618;5.130;2023-06-10T06:12:56;19.70;99.90
48728;DHT22;34527;45.618;5.130;2023-06-10T06:15:21;19.70;99.90
48728;DHT22;34527;45.618;5.130;2023-06-10T06:17:47;19.80;99.90
48728;DHT22;34527;45.618;5.130;2023-06-10T06:20:13;19.80;99.90
48728;DHT22;34527;45.618;5.130;2023-06-10T06:22:38;19.90;99.90
48728;DHT22;34527;45.618;5.130;2023-06-10T06:25:05;19.90;99.90
48728;DHT22;34527;45.618;5.130;2023-06-10T06:27:31;19.90;99.90
48728;DHT22;34527;45.618;5.130;2023-06-10T06:29:56;19.90;99.90
48728;DHT22;34527;45.618;5.130;2023-06-10T06:32:22;19.90;99.90
48728;DHT22;34527;45.618;5.130;2023-06-10T06:34:50;19.90;99.90
48728;DHT22;34527;45.618;5.130;2023-06-10T06:37:22;19.90;99.90
48728;DHT22;34527;45.618;5.130;2023-06-10T06:39:52;19.90;99.90
48728;DHT22;34527;45.618;5.130;2023-06-10T06:42:19;20.00;99.90
48728;DHT22;34527;45.618;5.130;2023-06-10T06:44:46;20.10;99.90
48728;DHT22;34527;45.618;5.130;2023-06-10T06:47:12;20.20;99.90
48728;DHT22;34527;45.618;5.130;2023-06-10T06:49:38;20.20;99.90
48728;DHT22;34527;45.618;5.130;2023-06-10T06:52:03;20.30;99.90
48728;DHT22;34527;45.618;5.130;2023-06-10T06:54:29;20.50;99.90
48728;DHT22;34527;45.618;5.130;2023-06-10T06:56:55;20.50;99.90
48728;DHT22;34527;45.618;5.130;2023-06-10T06:59:21;20.50;99.90
48728;DHT22;34527;45.618;5.130;2023-06-10T07:01:46;20.50;99.90
48728;DHT22;34527;45.618;5.130;2023-06-10T07:04:15;20.30;99.90
48728;DHT22;34527;45.618;5.130;2023-06-10T07:06:40;20.30;99.90
48728;DHT22;34527;45.618;5.130;2023-06-10T07:09:07;20.40;99.90
48728;DHT22;34527;45.618;5.130;2023-06-10T07:11:34;20.40;99.90
48728;DHT22;34527;45.618;5.130;2023-06-10T07:14:00;20.50;99.90
48728;DHT22;34527;45.618;5.130;2023-06-10T07:16:25;20.60;99.90
48728;DHT22;34527;45.618;5.130;2023-06-10T07:18:52;20.70;99.90
48728;DHT22;34527;45.618;5.130;2023-06-10T07:21:18;20.80;99.90
48728;DHT22;34527;45.618;5.130;2023-06-10T07:23:43;20.90;99.90
48728;DHT22;34527;45.618;5.130;2023-06-10T07:26:10;21.00;99.90
48728;DHT22;34527;45.618;5.130;2023-06-10T07:28:41;21.10;99.90
48728;DHT22;34527;45.618;5.130;2023-06-10T07:31:08;21.30;99.90
48728;DHT22;34527;45.618;5.130;2023-06-10T07:33:34;21.40;99.90
48728;DHT22;34527;45.618;5.130;2023-06-10T07:35:59;21.40;99.90
48728;DHT22;34527;45.618;5.130;2023-06-10T07:38:26;21.20;99.90
48728;DHT22;34527;45.618;5.130;2023-06-10T07:40:52;21.00;99.90
48728;DHT22;34527;45.618;5.130;2023-06-10T07:43:18;21.00;99.90
48728;DHT22;34527;45.618;5.130;2023-06-10T07:45:44;21.00;99.90
48728;DHT22;34527;45.618;5.130;2023-06-10T07:48:10;21.00;99.90
48728;DHT22;34527;45.618;5.130;2023-06-10T07:50:35;21.00;99.90
48728;DHT22;34527;45.618;5.130;2023-06-10T07:53:01;21.00;99.90
48728;DHT22;34527;45.618;5.130;2023-06-10T07:55:27;21.30;99.90
48728;DHT22;34527;45.618;5.130;2023-06-10T07:57:53;21.50;99.90
48728;DHT22;34527;45.618;5.130;2023-06-10T08:00:20;21.60;99.90
48728;DHT22;34527;45.618;5.130;2023-06-10T08:02:46;21.60;99.90
48728;DHT22;34527;45.618;5.130;2023-06-10T08:05:11;21.50;99.90
48728;DHT22;34527;45.618;5.130;2023-06-10T08:07:38;21.60;99.90
48728;DHT22;34527;45.618;5.130;2023-06-10T08:10:05;21.60;99.90
48728;DHT22;34527;45.618;5.130;2023-06-10T08:12:31;21.60;99.90
48728;DHT22;34527;45.618;5.130;2023-06-10T08:14:57;21.60;99.90
48728;DHT22;34527;45.618;5.130;2023-06-10T08:17:22;21.60;99.90
48728;DHT22;34527;45.618;5.130;2023-06-10T08:19:49;21.70;99.90
48728;DHT22;34527;45.618;5.130;2023-06-10T08:22:14;21.80;99.90
48728;DHT22;34527;45.618;5.130;2023-06-10T08:24:40;22.00;99.90
48728;DHT22;34527;45.618;5.130;2023-06-10T08:27:06;22.00;99.90
48728;DHT22;34527;45.618;5.130;2023-06-10T08:29:32;22.10;99.90
48728;DHT22;34527;45.618;5.130;2023-06-10T08:31:58;22.00;99.90
48728;DHT22;34527;45.618;5.130;2023-06-10T08:34:24;22.00;99.90
48728;DHT22;34527;45.618;5.130;2023-06-10T08:36:49;22.10;99.90
48728;DHT22;34527;45.618;5.130;2023-06-10T08:39:21;22.30;99.90
48728;DHT22;34527;45.618;5.130;2023-06-10T08:44:30;22.50;99.90
48728;DHT22;34527;45.618;5.130;2023-06-10T08:46:59;22.20;99.90
48728;DHT22;34527;45.618;5.130;2023-06-10T08:49:27;22.10;99.90
48728;DHT22;34527;45.618;5.130;2023-06-10T08:52:04;21.90;99.90
48728;DHT22;34527;45.618;5.130;2023-06-10T08:54:33;21.90;99.90
48728;DHT22;34527;45.618;5.130;2023-06-10T08:57:06;21.90;99.90
48728;DHT22;34527;45.618;5.130;2023-06-10T08:59:32;21.80;99.90
48728;DHT22;34527;45.618;5.130;2023-06-10T09:01:58;21.80;99.90
48728;DHT22;34527;45.618;5.130;2023-06-10T09:04:27;21.80;99.90
48728;DHT22;34527;45.618;5.130;2023-06-10T09:06:53;21.80;99.90
48728;DHT22;34527;45.618;5.130;2023-06-10T09:09:19;22.00;99.90
48728;DHT22;34527;45.618;5.130;2023-06-10T09:11:46;22.00;99.90
48728;DHT22;34527;45.618;5.130;2023-06-10T09:14:11;22.00;99.90
48728;DHT22;34527;45.618;5.130;2023-06-10T09:16:42;22.00;99.90
48728;DHT22;34527;45.618;5.130;2023-06-10T09:19:08;21.90;99.90
48728;DHT22;34527;45.618;5.130;2023-06-10T09:21:34;22.00;99.90
48728;DHT22;34527;45.618;5.130;2023-06-10T09:24:01;21.90;99.90
48728;DHT22;34527;45.618;5.130;2023-06-10T09:26:30;21.80;99.90
48728;DHT22;34527;45.618;5.130;2023-06-10T09:29:06;21.90;99.90
48728;DHT22;34527;45.618;5.130;2023-06-10T09:31:35;22.00;99.90
48728;DHT22;34527;45.618;5.130;2023-06-10T09:34:14;22.00;99.90
48728;DHT22;34527;45.618;5.130;2023-06-10T09:36:41;22.20;99.90
48728;DHT22;34527;45.618;5.130;2023-06-10T09:39:17;22.40;99.90
48728;DHT22;34527;45.618;5.130;2023-06-10T09:41:44;22.60;99.90
48728;DHT22;34527;45.618;5.130;2023-06-10T09:44:17;22.70;99.90
48728;DHT22;34527;45.618;5.130;2023-06-10T09:46:45;22.70;99.90
48728;DHT22;34527;45.618;5.130;2023-06-10T09:49:11;22.70;99.90
48728;DHT22;34527;45.618;5.130;2023-06-10T09:51:37;22.90;99.90
48728;DHT22;34527;45.618;5.130;2023-06-10T09:54:03;23.20;99.90
48728;DHT22;34527;45.618;5.130;2023-06-10T09:56:35;23.50;99.90
48728;DHT22;34527;45.618;5.130;2023-06-10T09:59:02;23.40;99.90
48728;DHT22;34527;45.618;5.130;2023-06-10T10:01:30;23.20;99.90
48728;DHT22;34527;45.618;5.130;2023-06-10T10:03:55;23.30;99.90
48728;DHT22;34527;45.618;5.130;2023-06-10T10:06:21;23.50;99.90
48728;DHT22;34527;45.618;5.130;2023-06-10T10:08:49;23.40;99.90
48728;DHT22;34527;45.618;5.130;2023-06-10T10:11:20;23.50;99.90
48728;DHT22;34527;45.618;5.130;2023-06-10T10:13:50;23.50;99.90
48728;DHT22;34527;45.618;5.130;2023-06-10T10:16:42;23.70;99.90
48728;DHT22;34527;45.618;5.130;2023-06-10T10:19:11;24.20;99.90
48728;DHT22;34527;45.618;5.130;2023-06-10T10:21:44;23.90;99.90
48728;DHT22;34527;45.618;5.130;2023-06-10T10:24:16;24.10;99.90
48728;DHT22;34527;45.618;5.130;2023-06-10T10:26:41;24.20;99.90
48728;DHT22;34527;45.618;5.130;2023-06-10T10:29:21;24.30;99.90
48728;DHT22;34527;45.618;5.130;2023-06-10T10:31:50;24.70;99.90
48728;DHT22;34527;45.618;5.130;2023-06-10T10:34:21;24.90;99.90
48728;DHT22;34527;45.618;5.130;2023-06-10T10:36:50;24.80;99.90
48728;DHT22;34527;45.618;5.130;2023-06-10T10:39:16;24.70;99.90
48728;DHT22;34527;45.618;5.130;2023-06-10T10:41:42;24.50;99.90
48728;DHT22;34527;45.618;5.130;2023-06-10T10:44:09;24.50;99.90
48728;DHT22;34527;45.618;5.130;2023-06-10T10:46:49;24.20;99.90
48728;DHT22;34527;45.618;5.130;2023-06-10T10:49:16;24.50;99.90
48728;DHT22;34527;45.618;5.130;2023-06-10T10:52:01;24.70;99.90
48728;DHT22;34527;45.618;5.130;2023-06-10T10:57:13;24.90;99.90
48728;DHT22;34527;45.618;5.130;2023-06-10T10:59:57;24.80;99.90
48728;DHT22;34527;45.618;5.130;2023-06-10T11:02:44;24.30;99.90
48728;DHT22;34527;45.618;5.130;2023-06-10T11:05:13;24.20;99.90
48728;DHT22;34527;45.618;5.130;2023-06-10T11:07:39;23.90;99.90
48728;DHT22;34527;45.618;5.130;2023-06-10T11:10:08;23.90;99.90
48728;DHT22;34527;45.618;5.130;2023-06-10T11:12:54;23.80;99.90
48728;DHT22;34527;45.618;5.130;2023-06-10T11:15:24;23.70;99.90
48728;DHT22;34527;45.618;5.130;2023-06-10T11:18:09;23.80;99.90
48728;DHT22;34527;45.618;5.130;2023-06-10T11:31:26;23.70;99.90
48728;DHT22;34527;45.618;5.130;2023-06-10T11:33:53;23.90;99.90
48728;DHT22;34527;45.618;5.130;2023-06-10T11:36:20;24.20;99.90
48728;DHT22;34527;45.618;5.130;2023-06-10T11:38:46;24.30;99.90
48728;DHT22;34527;45.618;5.130;2023-06-10T11:41:12;24.50;99.90
48728;DHT22;34527;45.618;5.130;2023-06-10T11:43:45;24.70;99.90
48728;DHT22;34527;45.618;5.130;2023-06-10T11:46:12;24.50;99.90
48728;DHT22;34527;45.618;5.130;2023-06-10T11:48:38;24.40;99.90
48728;DHT22;34527;45.618;5.130;2023-06-10T11:51:07;24.60;99.90
48728;DHT22;34527;45.618;5.130;2023-06-10T11:53:34;24.40;99.90
48728;DHT22;34527;45.618;5.130;2023-06-10T11:56:00;24.30;99.90
48728;DHT22;34527;45.618;5.130;2023-06-10T11:58:25;24.20;99.90
48728;DHT22;34527;45.618;5.130;2023-06-10T12:00:53;24.30;99.90
48728;DHT22;34527;45.618;5.130;2023-06-10T12:03:19;24.20;99.90
48728;DHT22;34527;45.618;5.130;2023-06-10T12:06:04;24.20;99.90
48728;DHT22;34527;45.618;5.130;2023-06-10T12:08:29;24.20;99.90
48728;DHT22;34527;45.618;5.130;2023-06-10T12:10:56;24.20;99.90
48728;DHT22;34527;45.618;5.130;2023-06-10T12:13:23;24.20;99.90
48728;DHT22;34527;45.618;5.130;2023-06-10T12:15:49;24.40;99.90
48728;DHT22;34527;45.618;5.130;2023-06-10T12:18:19;24.50;99.90
48728;DHT22;34527;45.618;5.130;2023-06-10T12:20:45;24.60;99.90
48728;DHT22;34527;45.618;5.130;2023-06-10T12:23:11;24.60;99.90
48728;DHT22;34527;45.618;5.130;2023-06-10T12:25:38;24.70;99.90
48728;DHT22;34527;45.618;5.130;2023-06-10T12:28:04;25.00;99.90
48728;DHT22;34527;45.618;5.130;2023-06-10T12:30:31;25.20;99.90
48728;DHT22;34527;45.618;5.130;2023-06-10T12:32:57;25.40;99.90
48728;DHT22;34527;45.618;5.130;2023-06-10T12:35:25;25.20;99.90
48728;DHT22;34527;45.618;5.130;2023-06-10T12:40:31;25.50;99.90
48728;DHT22;34527;45.618;5.130;2023-06-10T12:42:58;25.10;99.90
48728;DHT22;34527;45.618;5.130;2023-06-10T12:48:06;24.70;99.90
48728;DHT22;34527;45.618;5.130;2023-06-10T12:50:35;24.70;99.90
48728;DHT22;34527;45.618;5.130;2023-06-10T12:53:02;24.50;99.90
48728;DHT22;34527;45.618;5.130;2023-06-10T12:55:28;24.70;99.90
48728;DHT22;34527;45.618;5.130;2023-06-10T12:57:54;24.60;99.90
48728;DHT22;34527;45.618;5.130;2023-06-10T13:00:20;24.30;99.90
48728;DHT22;34527;45.618;5.130;2023-06-10T13:02:47;24.40;99.90
48728;DHT22;34527;45.618;5.130;2023-06-10T13:05:13;24.70;99.90
48728;DHT22;34527;45.618;5.130;2023-06-10T13:07:39;24.60;99.90
48728;DHT22;34527;45.618;5.130;2023-06-10T13:10:05;24.90;99.90
48728;DHT22;34527;45.618;5.130;2023-06-10T13:12:30;25.20;99.90
48728;DHT22;34527;45.618;5.130;2023-06-10T13:14:56;25.40;99.90
48728;DHT22;34527;45.618;5.130;2023-06-10T13:17:22;25.20;99.90
48728;DHT22;34527;45.618;5.130;2023-06-10T13:19:47;25.20;99.90
48728;DHT22;34527;45.618;5.130;2023-06-10T13:22:14;25.40;99.90
48728;DHT22;34527;45.618;5.130;2023-06-10T13:24:40;25.50;99.90
48728;DHT22;34527;45.618;5.130;2023-06-10T13:27:06;25.70;99.90
48728;DHT22;34527;45.618;5.130;2023-06-10T13:29:32;25.80;99.90
48728;DHT22;34527;45.618;5.130;2023-06-10T13:31:58;25.70;99.90
48728;DHT22;34527;45.618;5.130;2023-06-10T13:34:23;25.70;99.90
48728;DHT22;34527;45.618;5.130;2023-06-10T13:36:49;25.60;99.90
48728;DHT22;34527;45.618;5.130;2023-06-10T13:39:14;25.60;99.90
48728;DHT22;34527;45.618;5.130;2023-06-10T13:41:41;25.50;99.90
48728;DHT22;34527;45.618;5.130;2023-06-10T13:44:07;25.20;99.90
48728;DHT22;34527;45.618;5.130;2023-06-10T13:46:32;25.00;99.90
48728;DHT22;34527;45.618;5.130;2023-06-10T13:48:58;24.60;99.90
48728;DHT22;34527;45.618;5.130;2023-06-10T13:51:24;24.50;99.90
48728;DHT22;34527;45.618;5.130;2023-06-10T13:53:49;24.30;99.90
48728;DHT22;34527;45.618;5.130;2023-06-10T13:56:17;24.20;99.90
48728;DHT22;34527;45.618;5.130;2023-06-10T13:58:43;24.10;99.90
48728;DHT22;34527;45.618;5.130;2023-06-10T14:01:09;24.00;99.90
48728;DHT22;34527;45.618;5.130;2023-06-10T14:03:34;23.90;99.90
48728;DHT22;34527;45.618;5.130;2023-06-10T14:06:00;23.90;99.90
48728;DHT22;34527;45.618;5.130;2023-06-10T14:08:25;23.90;99.90
48728;DHT22;34527;45.618;5.130;2023-06-10T14:10:51;23.90;99.90
48728;DHT22;34527;45.618;5.130;2023-06-10T14:13:17;23.80;99.90
48728;DHT22;34527;45.618;5.130;2023-06-10T14:15:43;23.80;99.90
48728;DHT22;34527;45.618;5.130;2023-06-10T14:18:08;23.80;99.90
48728;DHT22;34527;45.618;5.130;2023-06-10T14:20:34;24.00;99.90
48728;DHT22;34527;45.618;5.130;2023-06-10T14:23:00;24.30;99.90
48728;DHT22;34527;45.618;5.130;2023-06-10T14:25:25;24.60;99.90
48728;DHT22;34527;45.618;5.130;2023-06-10T14:27:51;24.60;99.90
48728;DHT22;34527;45.618;5.130;2023-06-10T14:30:17;24.80;99.90
48728;DHT22;34527;45.618;5.130;2023-06-10T14:32:42;24.80;99.90
48728;DHT22;34527;45.618;5.130;2023-06-10T14:35:08;24.80;99.90
48728;DHT22;34527;45.618;5.130;2023-06-10T14:37:34;24.80;99.90
48728;DHT22;34527;45.618;5.130;2023-06-10T14:39:59;24.80;99.90
48728;DHT22;34527;45.618;5.130;2023-06-10T14:42:25;24.90;99.90
48728;DHT22;34527;45.618;5.130;2023-06-10T14:44:50;24.90;99.90
48728;DHT22;34527;45.618;5.130;2023-06-10T14:47:16;24.70;99.90
48728;DHT22;34527;45.618;5.130;2023-06-10T14:49:42;24.70;99.90
48728;DHT22;34527;45.618;5.130;2023-06-10T14:52:09;24.70;99.90
48728;DHT22;34527;45.618;5.130;2023-06-10T14:54:34;24.70;99.90
48728;DHT22;34527;45.618;5.130;2023-06-10T14:57:00;24.70;99.90
48728;DHT22;34527;45.618;5.130;2023-06-10T14:59:26;24.70;99.90
48728;DHT22;34527;45.618;5.130;2023-06-10T15:01:52;24.50;99.90
48728;DHT22;34527;45.618;5.130;2023-06-10T15:04:17;24.60;99.90
48728;DHT22;34527;45.618;5.130;2023-06-10T15:06:43;24.60;99.90
48728;DHT22;34527;45.618;5.130;2023-06-10T15:09:09;24.80;99.90
48728;DHT22;34527;45.618;5.130;2023-06-10T15:11:35;24.80;99.90
48728;DHT22;34527;45.618;5.130;2023-06-10T15:14:00;24.80;99.90
48728;DHT22;34527;45.618;5.130;2023-06-10T15:16:26;24.70;99.90
48728;DHT22;34527;45.618;5.130;2023-06-10T15:18:51;24.70;99.90
48728;DHT22;34527;45.618;5.130;2023-06-10T15:21:17;24.60;99.90
48728;DHT22;34527;45.618;5.130;2023-06-10T15:23:43;24.60;99.90
48728;DHT22;34527;45.618;5.130;2023-06-10T15:26:09;24.50;99.90
48728;DHT22;34527;45.618;5.130;2023-06-10T15:28:34;24.40;99.90
48728;DHT22;34527;45.618;5.130;2023-06-10T15:31:00;24.50;99.90
48728;DHT22;34527;45.618;5.130;2023-06-10T15:33:26;24.50;99.90
48728;DHT22;34527;45.618;5.130;2023-06-10T15:35:51;24.60;99.90
48728;DHT22;34527;45.618;5.130;2023-06-10T15:38:18;24.40;99.90
48728;DHT22;34527;45.618;5.130;2023-06-10T15:40:43;24.30;99.90
48728;DHT22;34527;45.618;5.130;2023-06-10T15:43:09;24.20;99.90
48728;DHT22;34527;45.618;5.130;2023-06-10T15:45:34;24.00;99.90
48728;DHT22;34527;45.618;5.130;2023-06-10T15:48:00;23.90;99.90
48728;DHT22;34527;45.618;5.130;2023-06-10T15:50:26;23.90;99.90
48728;DHT22;34527;45.618;5.130;2023-06-10T15:52:51;23.90;99.90